Time;durP1;ratioP1;P1;durP2;ratioP2;P2;SDS_P1;SDS_P2;PMS_P1;PMS_P2;Temp;Humidity;BMP_temperature;BMP_pressure;BME280_temperature;BME280_humidity;BME280_pressure;Samples;Min_cycle;Max_cycle;Signal;HPM_P1;HPM_P2
2024/03/29 00:03:40;;;;;;;8.20;4.80;;;;;;;6.91;83.72;97446.36;226832;1269;22535;-79
2024/03/29 00:08:45;;;;;;;8.00;5.50;;;;;;;6.85;83.87;97459.33;227029;1274;25401;-79
2024/03/29 00:13:47;;;;;;;7.90;5.50;;;;;;;6.80;84.37;97480.53;226908;1273;22582;-79
2024/03/29 00:18:49;;;;;;;10.00;6.70;;;;;;;6.71;84.20;97489.09;226914;1273;22655;-79
2024/03/29 00:23:51;;;;;;;9.00;6.00;;;;;;;6.62;84.12;97495.35;226884;1270;22580;-80
2024/03/29 00:28:53;;;;;;;9.30;6.30;;;;;;;6.52;84.45;97506.36;226921;1273;22558;-79
2024/03/29 00:33:55;;;;;;;9.30;6.20;;;;;;;6.42;84.76;97518.52;226977;1272;22529;-80
2024/03/29 00:38:56;;;;;;;10.30;6.10;;;;;;;6.32;85.20;97525.34;226997;1267;22538;-79
2024/03/29 00:43:58;;;;;;;7.30;4.60;;;;;;;6.22;84.62;97536.43;226876;1267;25258;-79
2024/03/29 00:49:00;;;;;;;6.20;3.70;;;;;;;6.13;84.36;97543.90;226928;1272;25291;-79
2024/03/29 00:54:02;;;;;;;4.90;3.40;;;;;;;6.06;85.25;97557.70;226910;1273;22633;-78
2024/03/29 00:59:04;;;;;;;5.20;3.10;;;;;;;6.00;84.87;97567.45;226914;1272;22545;-78
2024/03/29 01:04:06;;;;;;;3.80;2.70;;;;;;;5.95;85.20;97577.52;226870;1270;22537;-78
2024/03/29 01:09:11;;;;;;;4.50;2.70;;;;;;;5.90;85.02;97590.98;226874;1267;22548;-77
2024/03/29 01:14:13;;;;;;;4.20;2.40;;;;;;;5.81;84.72;97604.58;226898;1266;22554;-78
2024/03/29 01:19:15;;;;;;;3.00;1.90;;;;;;;5.71;84.79;97623.42;226805;1270;161084;-77
2024/03/29 01:24:18;;;;;;;2.50;2.10;;;;;;;5.62;84.72;97632.60;226843;1266;22538;-79
2024/03/29 01:29:20;;;;;;;4.10;2.00;;;;;;;5.55;84.95;97637.60;226862;1270;22615;-77
2024/03/29 01:34:22;;;;;;;2.80;1.60;;;;;;;5.49;85.08;97643.77;226924;1271;22567;-78
2024/03/29 01:39:28;;;;;;;3.50;1.50;;;;;;;5.46;85.41;97659.70;226826;1270;22545;-79
2024/03/29 01:44:30;;;;;;;2.80;1.90;;;;;;;5.47;85.77;97677.45;226935;1269;22535;-79
2024/03/29 01:49:33;;;;;;;2.30;1.80;;;;;;;5.46;85.56;97679.61;226853;1270;22549;-79
2024/03/29 01:54:35;;;;;;;2.40;1.70;;;;;;;5.44;85.43;97694.83;227024;1269;22545;-79
2024/03/29 01:59:38;;;;;;;2.50;1.70;;;;;;;5.42;85.63;97707.96;226826;1270;23003;-79
2024/03/29 02:04:41;;;;;;;1.70;1.50;;;;;;;5.41;85.53;97715.52;226833;1272;22546;-79
2024/03/29 02:09:42;;;;;;;1.60;1.40;;;;;;;5.37;85.59;97733.55;226949;1269;25398;-78
2024/03/29 02:14:44;;;;;;;2.00;1.30;;;;;;;5.34;85.78;97744.60;226918;1272;22535;-78
2024/03/29 02:19:47;;;;;;;2.00;1.60;;;;;;;5.31;86.16;97756.74;226804;1270;22548;-78
2024/03/29 02:24:49;;;;;;;3.20;1.80;;;;;;;5.28;86.00;97764.30;227047;1266;22626;-78
2024/03/29 02:29:51;;;;;;;2.30;1.80;;;;;;;5.21;85.62;97769.52;226835;1260;22581;-77
2024/03/29 02:34:53;;;;;;;4.20;2.10;;;;;;;5.11;85.46;97778.52;226911;1270;22636;-77
2024/03/29 02:39:55;;;;;;;2.80;1.80;;;;;;;5.04;85.85;97789.27;226817;1270;23678;-77
2024/03/29 02:44:57;;;;;;;2.40;2.10;;;;;;;4.99;85.72;97793.94;226811;1266;22554;-78
2024/03/29 02:49:59;;;;;;;2.40;1.80;;;;;;;4.95;85.76;97796.45;226897;1270;22545;-78
2024/03/29 02:55:00;;;;;;;3.70;2.70;;;;;;;4.89;85.80;97790.09;226932;1265;22553;-78
2024/03/29 03:00:04;;;;;;;2.70;2.20;;;;;;;4.84;85.73;97810.41;226908;1265;22558;-77
2024/03/29 03:05:07;;;;;;;4.30;2.60;;;;;;;4.81;85.97;97822.46;226815;1269;25917;-77
2024/03/29 03:15:30;;;;;;;5.70;4.00;;;;;;;4.72;85.63;97813.23;226897;1267;22544;-77
2024/03/29 03:20:33;;;;;;;6.80;4.30;;;;;;;4.65;85.66;97813.33;226887;1272;22578;-77
2024/03/29 03:25:34;;;;;;;8.10;5.60;;;;;;;4.59;85.56;97811.77;226899;1270;22535;-77
2024/03/29 03:30:40;;;;;;;7.00;5.90;;;;;;;4.50;85.96;97810.19;226772;1270;25453;-77
2024/03/29 03:35:42;;;;;;;10.50;7.30;;;;;;;4.40;85.99;97807.68;226859;1272;22745;-77
2024/03/29 03:40:44;;;;;;;8.20;6.70;;;;;;;4.31;85.90;97803.98;226861;1272;22542;-77
2024/03/29 03:45:47;;;;;;;10.40;8.20;;;;;;;4.24;85.87;97801.23;226776;1269;22578;-77
2024/03/29 03:50:49;;;;;;;8.00;7.00;;;;;;;4.19;86.20;97805.47;226815;1272;22546;-77
2024/03/29 03:55:51;;;;;;;11.30;9.00;;;;;;;4.14;86.41;97806.59;226888;1273;22671;-78
2024/03/29 04:00:53;;;;;;;10.40;8.90;;;;;;;4.11;86.64;97800.63;226895;1271;24379;-78
2024/03/29 04:05:55;;;;;;;10.10;8.40;;;;;;;4.08;86.34;97802.92;226711;1272;25407;-77
2024/03/29 04:10:57;;;;;;;11.20;9.30;;;;;;;4.04;86.31;97796.23;226779;1260;22560;-77
2024/03/29 04:16:06;;;;;;;12.00;8.90;;;;;;;3.98;86.02;97795.20;226902;1270;22559;-77
2024/03/29 04:21:07;;;;;;;9.20;7.50;;;;;;;3.92;86.54;97812.36;226874;1266;22582;-77
2024/03/29 04:26:09;;;;;;;9.00;7.60;;;;;;;3.92;86.68;97836.77;226901;1272;22607;-77
2024/03/29 04:31:11;;;;;;;10.70;7.60;;;;;;;3.92;86.56;97843.23;226820;1273;22535;-77
2024/03/29 04:36:13;;;;;;;10.60;8.20;;;;;;;3.91;86.71;97849.21;226754;1250;22539;-77
2024/03/29 04:41:14;;;;;;;9.20;6.50;;;;;;;3.89;86.80;97865.64;226948;1269;22539;-76
2024/03/29 04:46:16;;;;;;;9.50;7.50;;;;;;;3.89;86.78;97879.84;227001;1272;22541;-77
2024/03/29 04:51:18;;;;;;;10.00;6.60;;;;;;;3.91;87.10;97887.35;226902;1272;22634;-77
2024/03/29 04:56:20;;;;;;;8.40;6.80;;;;;;;3.95;87.16;97885.91;227003;1272;22552;-77
2024/03/29 05:01:21;;;;;;;8.50;6.70;;;;;;;3.99;86.90;97883.31;226856;1270;22728;-77
2024/03/29 05:06:23;;;;;;;10.10;6.90;;;;;;;4.07;87.19;97884.77;226902;1270;22544;-77
2024/03/29 05:11:25;;;;;;;9.60;6.10;;;;;;;4.14;87.37;97890.19;226900;1272;22539;-77
2024/03/29 05:16:27;;;;;;;7.60;5.80;;;;;;;4.24;87.46;97895.70;226909;1272;22600;-77
2024/03/29 05:21:29;;;;;;;6.40;5.50;;;;;;;4.34;87.27;97900.40;226976;1269;23009;-77
2024/03/29 05:26:31;;;;;;;6.60;3.90;;;;;;;4.44;87.04;97918.60;226994;1271;22564;-81
2024/03/29 05:31:33;;;;;;;5.00;3.60;;;;;;;4.59;87.10;97920.42;226914;1270;22555;-82
2024/03/29 05:36:36;;;;;;;6.00;3.40;;;;;;;4.75;86.98;97923.48;226975;1272;22554;-82
2024/03/29 05:41:38;;;;;;;4.00;2.60;;;;;;;4.93;86.74;97934.30;226941;1273;22626;-82
2024/03/29 05:46:40;;;;;;;3.90;2.90;;;;;;;5.10;86.52;97941.32;226862;1272;22539;-82
2024/03/29 05:51:41;;;;;;;4.20;2.70;;;;;;;5.28;86.33;97947.05;226897;1270;22644;-81
2024/03/29 05:56:43;;;;;;;3.20;2.60;;;;;;;5.45;86.11;97939.85;226933;1269;22679;-82
2024/03/29 06:01:45;;;;;;;5.80;2.60;;;;;;;5.63;85.56;97948.12;226877;1272;25512;-82
2024/03/29 06:06:47;;;;;;;2.60;2.00;;;;;;;5.82;85.36;97945.55;226902;1269;26045;-81
2024/03/29 06:11:49;;;;;;;2.80;2.30;;;;;;;6.01;85.34;97935.50;226967;1266;22565;-82
2024/03/29 06:22:11;;;;;;;5.70;2.90;;;;;;;6.37;84.49;97912.11;226930;1269;25301;-81
2024/03/29 06:27:17;;;;;;;3.60;2.40;;;;;;;6.52;84.31;97909.50;226973;1269;22543;-83
2024/03/29 06:32:18;;;;;;;6.80;2.50;;;;;;;6.67;84.08;97922.45;226937;1272;22542;-80
2024/03/29 06:37:21;;;;;;;3.50;2.10;;;;;;;6.87;83.73;97923.59;226892;1271;22554;-81
2024/03/29 06:42:23;;;;;;;3.00;2.20;;;;;;;7.06;83.18;97941.05;226834;1270;23064;-81
2024/03/29 06:47:28;;;;;;;2.20;1.60;;;;;;;7.25;82.61;97951.88;226863;1271;22566;-82
2024/03/29 06:52:30;;;;;;;3.30;2.00;;;;;;;7.42;81.94;97946.27;226770;1269;22626;-80
2024/03/29 06:57:32;;;;;;;2.50;1.70;;;;;;;7.61;81.24;97938.65;226788;1266;22542;-79
2024/03/29 07:02:34;;;;;;;4.50;2.00;;;;;;;7.80;81.09;97923.84;226572;1266;22519;-82
2024/03/29 07:07:37;;;;;;;2.00;1.30;;;;;;;7.99;80.12;97925.66;226772;1266;25249;-80
2024/03/29 07:12:39;;;;;;;19.10;12.90;;;;;;;8.17;79.49;97936.14;226850;1269;22577;-81
2024/03/29 07:17:43;;;;;;;2.10;1.50;;;;;;;8.36;78.19;97948.84;226175;1256;22998;-81
2024/03/29 07:22:45;;;;;;;2.70;1.40;;;;;;;8.57;77.95;97949.23;226231;1257;22566;-79
2024/03/29 07:27:47;;;;;;;2.20;1.60;;;;;;;8.76;77.42;97953.52;226312;1266;22471;-80
2024/03/29 07:32:49;;;;;;;3.00;1.50;;;;;;;9.01;76.38;97969.66;226441;1273;22614;-80
2024/03/29 07:37:53;;;;;;;2.30;1.80;;;;;;;9.27;75.77;97978.65;226627;1273;22704;-80
2024/03/29 07:42:55;;;;;;;4.10;1.60;;;;;;;9.59;74.55;97976.80;226523;1273;22574;-79
2024/03/29 07:47:58;;;;;;;2.60;1.80;;;;;;;9.91;74.46;97979.78;226851;1267;22534;-79
2024/03/29 07:52:59;;;;;;;2.50;1.70;;;;;;;10.23;73.24;97970.02;226732;1267;22570;-80
2024/03/29 07:58:02;;;;;;;3.00;1.60;;;;;;;10.52;72.55;97977.66;226804;1263;22562;-80
2024/03/29 08:03:04;;;;;;;3.50;1.80;;;;;;;10.74;71.73;97973.13;226748;1258;22574;-80
2024/03/29 08:08:06;;;;;;;2.60;1.50;;;;;;;10.86;70.29;97984.13;226837;1272;22532;-80
2024/03/29 08:13:08;;;;;;;1.40;1.30;;;;;;;10.95;70.32;97981.29;226904;1263;22576;-80
2024/03/29 08:18:11;;;;;;;2.20;0.90;;;;;;;11.07;69.22;97979.73;226669;1273;22582;-83
2024/03/29 08:23:13;;;;;;;2.50;1.00;;;;;;;11.21;68.45;97987.35;226562;1267;22471;-81
2024/03/29 08:28:15;;;;;;;2.00;1.10;;;;;;;11.34;68.13;97996.77;226556;1266;22520;-81
2024/03/29 08:33:17;;;;;;;1.70;1.10;;;;;;;11.48;68.20;97985.58;226249;1264;22574;-82
2024/03/29 08:38:19;;;;;;;1.60;1.00;;;;;;;11.61;67.68;97976.13;226261;1273;22523;-80
2024/03/29 08:43:20;;;;;;;2.30;1.20;;;;;;;11.75;66.67;97982.55;226447;1266;22552;-82
2024/03/29 08:48:24;;;;;;;1.90;1.10;;;;;;;11.84;65.94;97977.17;226585;1272;22534;-81
2024/03/29 08:53:28;;;;;;;1.50;0.80;;;;;;;11.97;65.92;97978.12;226582;1269;22712;-81
2024/03/29 08:58:30;;;;;;;2.60;0.90;;;;;;;12.06;64.28;97986.06;226698;1271;22541;-81
2024/03/29 09:03:32;;;;;;;1.50;1.00;;;;;;;12.10;63.91;97985.83;226797;1273;22549;-80
2024/03/29 09:08:33;;;;;;;2.30;0.80;;;;;;;12.19;63.82;97983.67;226794;1269;22566;-80
2024/03/29 09:13:35;;;;;;;1.90;0.90;;;;;;;12.27;62.72;97985.48;226829;1271;22603;-80
2024/03/29 09:18:37;;;;;;;1.90;1.10;;;;;;;12.34;62.01;97988.79;226837;1273;22568;-79
2024/03/29 09:23:41;;;;;;;1.00;0.60;;;;;;;12.43;60.98;97990.23;226854;1271;23138;-79
2024/03/29 09:28:43;;;;;;;1.30;0.80;;;;;;;12.56;61.53;97983.84;226808;1269;22545;-79
2024/03/29 09:33:49;;;;;;;2.00;0.90;;;;;;;12.74;60.84;97985.64;226853;1266;24248;-79
2024/03/29 09:38:52;;;;;;;2.20;0.60;;;;;;;12.92;60.42;97978.98;226784;1272;22539;-79
2024/03/29 09:43:57;;;;;;;1.20;0.70;;;;;;;13.08;60.20;97981.66;226786;1267;23308;-84
2024/03/29 09:49:02;;;;;;;2.50;1.00;;;;;;;13.23;59.28;97976.99;226872;1265;22544;-79
2024/03/29 09:54:07;;;;;;;1.90;0.80;;;;;;;13.33;58.73;97974.79;226758;1269;22557;-80
2024/03/29 09:59:10;;;;;;;0.80;0.60;;;;;;;13.49;58.50;97974.55;226764;1269;22572;-80
2024/03/29 10:04:13;;;;;;;2.20;0.90;;;;;;;13.60;56.87;97962.22;226918;1271;22538;-77
2024/03/29 10:09:19;;;;;;;1.80;0.90;;;;;;;13.70;57.04;97957.41;226754;1270;22543;-79
2024/03/29 10:14:22;;;;;;;1.40;0.70;;;;;;;13.88;57.48;97942.91;226757;1263;24280;-80
2024/03/29 10:19:24;;;;;;;2.10;0.70;;;;;;;14.09;55.78;97936.83;226752;1267;22574;-82
2024/03/29 10:24:26;;;;;;;2.70;1.60;;;;;;;14.27;54.90;97937.13;226581;1273;22546;-80
2024/03/29 10:29:29;;;;;;;1.00;0.60;;;;;;;14.39;54.47;97936.10;226669;1271;22550;-81
2024/03/29 10:34:35;;;;;;;1.40;0.60;;;;;;;14.52;54.99;97929.41;226748;1272;22538;-81
2024/03/29 10:39:42;;;;;;;1.50;0.60;;;;;;;14.67;53.75;97926.63;226402;1270;22554;-80
2024/03/29 10:44:45;;;;;;;1.80;0.60;;;;;;;14.87;53.35;97926.09;226479;1257;22545;-81
2024/03/29 10:49:50;;;;;;;1.00;0.50;;;;;;;15.06;52.73;97914.42;226482;1267;22692;-80
2024/03/29 10:54:54;;;;;;;1.40;0.60;;;;;;;15.21;52.54;97903.99;226510;1273;22567;-79
2024/03/29 11:00:08;;;;;;;1.10;0.30;;;;;;;15.35;51.48;97879.80;226357;1253;22536;-80
2024/03/29 11:05:12;;;;;;;1.90;0.50;;;;;;;15.48;50.47;97875.83;226498;1272;22531;-80
2024/03/29 11:10:26;;;;;;;1.60;0.50;;;;;;;15.62;50.31;97871.16;226640;1267;22665;-79
2024/03/29 11:15:30;;;;;;;1.40;0.40;;;;;;;15.75;50.52;97860.35;226467;1270;22580;-80
2024/03/29 11:20:34;;;;;;;1.40;0.50;;;;;;;15.90;49.50;97864.56;226577;1260;22537;-80
2024/03/29 11:25:40;;;;;;;0.40;0.40;;;;;;;16.05;50.03;97859.23;226524;1269;22546;-80
2024/03/29 11:30:46;;;;;;;1.00;0.50;;;;;;;16.21;48.85;97846.83;226945;1267;22571;-81
2024/03/29 11:35:47;;;;;;;1.10;0.50;;;;;;;16.36;49.16;97835.23;226624;1272;22538;-80
2024/03/29 11:41:06;;;;;;;0.70;0.50;;;;;;;16.50;49.36;97828.95;226676;1272;22541;-82
2024/03/29 11:46:15;;;;;;;2.20;1.10;;;;;;;16.63;50.08;97825.69;226588;1269;22575;-81
2024/03/29 11:51:21;;;;;;;1.20;0.90;;;;;;;16.70;49.91;97815.38;226605;1273;22538;-80
2024/03/29 11:56:23;;;;;;;0.50;0.40;;;;;;;16.80;49.72;97817.73;226605;1273;22557;-82
2024/03/29 12:01:27;;;;;;;0.90;0.60;;;;;;;16.98;50.65;97811.71;226698;1260;22544;-82
2024/03/29 12:06:29;;;;;;;2.20;0.90;;;;;;;17.15;49.87;97807.59;226701;1273;22586;-83
2024/03/29 12:11:31;;;;;;;1.20;0.60;;;;;;;17.31;49.13;97809.39;226765;1273;22562;-82
2024/03/29 12:16:43;;;;;;;1.30;0.50;;;;;;;17.40;47.66;97808.17;226717;1269;22559;-82
2024/03/29 12:21:45;;;;;;;0.40;0.40;;;;;;;17.53;47.74;97806.56;226810;1271;22584;-83
2024/03/29 12:26:50;;;;;;;1.60;0.60;;;;;;;17.67;47.63;97800.38;226591;1267;22912;-84
2024/03/29 12:32:00;;;;;;;0.70;0.40;;;;;;;17.81;48.08;97792.77;226574;1272;22546;-85
2024/03/29 12:37:02;;;;;;;0.60;0.40;;;;;;;17.93;47.42;97790.08;226712;1272;22548;-85
2024/03/29 12:42:04;;;;;;;1.70;0.60;;;;;;;18.04;47.07;97783.33;226644;1273;22542;-82
2024/03/29 12:47:06;;;;;;;0.70;0.50;;;;;;;18.09;46.83;97769.88;226559;1273;22531;-83
2024/03/29 12:52:09;;;;;;;0.90;0.60;;;;;;;18.13;46.25;97755.98;226528;1273;22547;-82
2024/03/29 12:57:11;;;;;;;1.00;0.50;;;;;;;18.09;45.73;97749.26;226625;1274;22528;-85
2024/03/29 13:02:13;;;;;;;0.70;0.50;;;;;;;18.16;47.05;97749.21;226896;1263;22543;-83
2024/03/29 13:07:15;;;;;;;0.90;0.40;;;;;;;18.32;46.62;97753.98;226726;1265;24548;-84
2024/03/29 13:12:17;;;;;;;1.60;0.70;;;;;;;18.34;45.62;97743.34;226751;1263;22534;-85
2024/03/29 13:17:19;;;;;;;2.20;0.60;;;;;;;18.51;46.71;97744.30;226555;1272;207500;-82
2024/03/29 13:22:21;;;;;;;0.90;0.40;;;;;;;18.65;45.86;97740.92;226855;1269;22684;-83
2024/03/29 13:27:23;;;;;;;1.80;0.80;;;;;;;18.75;46.33;97737.30;226611;1258;22542;-83
2024/03/29 13:32:26;;;;;;;2.80;0.70;;;;;;;18.87;46.86;97740.35;226733;1269;23007;-84
2024/03/29 13:37:28;;;;;;;11.20;10.20;;;;;;;18.99;46.98;97733.24;226607;1267;22597;-87
2024/03/29 13:42:31;;;;;;;1.40;0.80;;;;;;;19.14;46.29;97739.24;226596;1274;25250;-81
2024/03/29 13:47:34;;;;;;;2.10;1.00;;;;;;;19.20;45.56;97744.00;226847;1273;22530;-80
2024/03/29 13:52:37;;;;;;;1.30;0.60;;;;;;;19.11;45.32;97750.59;226615;1260;23030;-76
2024/03/29 13:57:40;;;;;;;2.40;1.10;;;;;;;19.05;45.99;97752.04;226726;1273;22548;-78
2024/03/29 14:02:42;;;;;;;2.20;0.80;;;;;;;19.04;45.82;97759.75;226801;1256;22529;-79
2024/03/29 14:07:44;;;;;;;1.40;0.60;;;;;;;19.14;46.20;97754.52;226797;1267;22554;-77
2024/03/29 14:12:47;;;;;;;1.90;0.70;;;;;;;19.29;45.60;97749.89;226847;1266;22535;-77
2024/03/29 14:17:50;;;;;;;1.60;0.70;;;;;;;19.34;45.57;97746.83;226626;1272;22629;-77
2024/03/29 14:22:56;;;;;;;1.50;0.70;;;;;;;19.42;45.21;97738.63;226615;1270;22586;-77
2024/03/29 14:27:59;;;;;;;2.80;1.90;;;;;;;19.37;45.53;97748.92;226845;1268;22526;-77
2024/03/29 14:33:06;;;;;;;1.70;1.10;;;;;;;19.24;45.32;97757.18;227013;1269;22538;-78
2024/03/29 14:38:08;;;;;;;1.70;0.90;;;;;;;18.95;45.93;97751.44;226976;1260;22539;-78
2024/03/29 14:43:10;;;;;;;3.30;1.00;;;;;;;18.70;46.61;97752.60;227083;1269;22538;-78
2024/03/29 14:48:12;;;;;;;2.00;1.00;;;;;;;18.46;46.96;97748.19;226894;1251;22535;-77
2024/03/29 14:53:17;;;;;;;2.80;1.00;;;;;;;18.19;46.94;97744.36;226835;1265;22557;-77
2024/03/29 14:58:19;;;;;;;2.10;1.10;;;;;;;17.94;47.40;97760.19;226828;1272;24776;-76
2024/03/29 15:03:22;;;;;;;3.20;1.30;;;;;;;17.80;48.14;97763.92;226426;1272;22611;-77
2024/03/29 15:08:24;;;;;;;3.00;1.50;;;;;;;17.80;48.63;97764.23;226366;1272;22542;-77
2024/03/29 15:13:27;;;;;;;4.40;1.30;;;;;;;17.76;48.94;97770.52;226479;1264;22538;-76
2024/03/29 15:18:29;;;;;;;2.60;1.00;;;;;;;17.64;49.61;97771.88;226852;1272;22556;-77
2024/03/29 15:23:31;;;;;;;5.40;1.10;;;;;;;17.40;50.03;97768.92;226788;1271;22542;-76
2024/03/29 15:33:54;;;;;;;3.50;1.30;;;;;;;16.87;51.02;97776.45;226729;1272;25203;-78
2024/03/29 15:39:04;;;;;;;5.60;2.50;;;;;;;16.69;51.46;97776.37;226866;1272;23306;-76
2024/03/29 15:44:06;;;;;;;4.00;1.70;;;;;;;16.67;52.04;97768.88;226794;1270;22546;-77
2024/03/29 15:49:08;;;;;;;4.80;2.00;;;;;;;16.75;52.36;97756.11;226830;1269;22542;-78
2024/03/29 15:54:16;;;;;;;5.10;1.80;;;;;;;16.81;52.28;97752.58;226742;1270;22539;-76
2024/03/29 15:59:18;;;;;;;5.30;2.00;;;;;;;16.80;52.45;97744.89;226754;1270;22589;-77
2024/03/29 16:04:20;;;;;;;6.30;2.30;;;;;;;16.74;52.53;97741.44;226840;1272;22531;-78
2024/03/29 16:09:22;;;;;;;6.00;1.90;;;;;;;16.63;52.69;97735.77;226815;1272;22598;-78
2024/03/29 16:14:25;;;;;;;5.60;1.80;;;;;;;16.50;53.08;97729.17;226855;1272;22542;-78
2024/03/29 16:19:28;;;;;;;4.00;1.70;;;;;;;16.38;53.28;97728.61;226896;1267;22572;-78
2024/03/29 16:24:30;;;;;;;5.70;2.00;;;;;;;16.28;53.56;97746.95;226842;1270;23029;-77
2024/03/29 16:29:31;;;;;;;4.50;2.40;;;;;;;16.16;53.84;97759.60;226849;1272;23356;-77
2024/03/29 16:34:33;;;;;;;6.00;2.60;;;;;;;16.03;54.18;97754.77;226863;1273;25501;-77
2024/03/29 16:39:35;;;;;;;6.30;3.20;;;;;;;15.91;54.56;97752.64;226893;1272;22536;-78
2024/03/29 16:44:37;;;;;;;7.70;4.10;;;;;;;15.78;54.99;97753.39;226822;1266;22539;-77
2024/03/29 16:49:39;;;;;;;8.40;4.80;;;;;;;15.68;55.46;97758.63;226860;1273;22661;-77
2024/03/29 16:54:40;;;;;;;6.20;3.50;;;;;;;15.57;55.70;97752.98;226877;1272;22565;-77
2024/03/29 16:59:43;;;;;;;5.50;2.90;;;;;;;15.45;56.15;97750.66;226894;1272;22721;-77
2024/03/29 17:04:46;;;;;;;6.00;2.50;;;;;;;15.35;56.56;97749.91;226911;1270;22552;-77
2024/03/29 17:09:48;;;;;;;6.70;2.90;;;;;;;15.24;56.97;97753.27;226824;1273;23258;-77
2024/03/29 17:14:50;;;;;;;5.40;3.10;;;;;;;15.13;57.25;97753.52;226850;1270;22542;-77
2024/03/29 17:19:52;;;;;;;6.30;3.20;;;;;;;15.04;57.76;97748.85;226927;1271;22544;-76
2024/03/29 17:24:55;;;;;;;10.60;3.20;;;;;;;14.94;57.96;97744.19;226810;1273;23989;-77
2024/03/29 17:29:57;;;;;;;9.70;3.60;;;;;;;14.85;58.17;97742.79;226843;1270;22538;-77
2024/03/29 17:35:04;;;;;;;9.30;4.20;;;;;;;14.75;58.53;97743.52;226812;1272;25326;-76
2024/03/29 17:40:06;;;;;;;9.00;4.30;;;;;;;14.64;59.03;97743.52;226755;1273;25282;-77
2024/03/29 17:45:08;;;;;;;11.00;4.10;;;;;;;14.54;59.43;97739.01;226772;1272;22642;-77
2024/03/29 17:50:11;;;;;;;15.50;3.60;;;;;;;14.43;59.73;97738.81;226817;1270;22541;-77
2024/03/29 17:55:14;;;;;;;9.20;3.90;;;;;;;14.32;60.13;97739.70;226957;1273;22554;-77
2024/03/29 18:00:16;;;;;;;7.30;4.00;;;;;;;14.21;60.71;97740.23;226810;1271;22540;-78
2024/03/29 18:05:18;;;;;;;13.60;5.30;;;;;;;14.10;60.81;97747.61;226985;1272;22550;-78
2024/03/29 18:10:20;;;;;;;9.90;4.70;;;;;;;13.99;61.23;97751.80;226928;1270;22561;-77
2024/03/29 18:15:22;;;;;;;9.00;4.40;;;;;;;13.87;61.60;97758.03;226888;1270;24778;-77
2024/03/29 18:20:24;;;;;;;11.20;4.20;;;;;;;13.75;61.94;97761.30;226888;1267;22557;-77
2024/03/29 18:25:25;;;;;;;9.20;4.00;;;;;;;13.63;62.47;97760.93;226909;1272;22546;-75
2024/03/29 18:30:27;;;;;;;11.40;4.90;;;;;;;13.55;62.95;97762.13;226798;1267;22542;-77
2024/03/29 18:35:29;;;;;;;13.00;5.50;;;;;;;13.45;63.22;97769.44;226871;1263;22530;-77
2024/03/29 18:40:34;;;;;;;10.70;5.40;;;;;;;13.31;63.49;97767.17;226862;1272;22562;-76
2024/03/29 18:45:38;;;;;;;17.70;6.60;;;;;;;13.18;63.91;97763.14;226895;1270;22499;-77
2024/03/29 18:50:40;;;;;;;10.60;5.70;;;;;;;13.07;64.34;97755.80;226936;1264;22541;-77
2024/03/29 18:55:42;;;;;;;12.80;5.40;;;;;;;12.97;64.83;97754.73;226859;1270;22558;-77
2024/03/29 19:00:44;;;;;;;9.90;4.20;;;;;;;12.90;64.91;97753.21;226996;1272;22553;-76
2024/03/29 19:05:46;;;;;;;9.30;4.60;;;;;;;12.83;65.46;97756.13;226892;1267;22539;-77
2024/03/29 19:10:47;;;;;;;8.30;4.00;;;;;;;12.76;65.89;97757.02;226898;1272;22555;-78
2024/03/29 19:15:49;;;;;;;9.70;3.90;;;;;;;12.71;66.05;97757.27;226885;1269;22571;-77
2024/03/29 19:20:51;;;;;;;9.50;3.50;;;;;;;12.67;66.26;97754.81;226810;1266;22912;-77
2024/03/29 19:25:53;;;;;;;9.20;4.30;;;;;;;12.62;66.52;97755.31;226938;1264;25314;-77
2024/03/29 19:30:55;;;;;;;10.70;4.10;;;;;;;12.56;66.67;97751.81;226819;1273;22515;-77
2024/03/29 19:35:57;;;;;;;8.40;4.00;;;;;;;12.50;67.06;97753.88;226939;1269;22557;-77
2024/03/29 19:40:59;;;;;;;9.30;4.00;;;;;;;12.46;67.28;97757.86;226838;1251;22576;-77
2024/03/29 19:46:01;;;;;;;8.90;3.60;;;;;;;12.41;67.44;97754.92;226808;1270;22561;-79
2024/03/29 19:51:03;;;;;;;8.80;3.80;;;;;;;12.38;67.75;97758.54;226885;1273;25422;-75
2024/03/29 19:56:08;;;;;;;10.80;3.90;;;;;;;12.33;67.68;97750.32;226835;1273;24957;-77
2024/03/29 20:01:10;;;;;;;9.10;4.30;;;;;;;12.28;68.19;97753.10;226732;1272;22559;-77
2024/03/29 20:06:12;;;;;;;11.50;5.70;;;;;;;12.23;68.26;97744.10;226835;1268;22536;-76
2024/03/29 20:11:14;;;;;;;14.70;7.10;;;;;;;12.18;68.57;97742.65;226865;1272;22548;-76
2024/03/29 20:16:16;;;;;;;12.00;6.10;;;;;;;12.14;68.60;97741.75;226955;1270;22885;-77
2024/03/29 20:21:18;;;;;;;12.20;5.70;;;;;;;12.12;68.82;97742.80;226930;1270;22564;-77
2024/03/29 20:26:20;;;;;;;14.90;4.40;;;;;;;12.10;69.19;97742.73;226869;1266;22541;-76
2024/03/29 20:31:21;;;;;;;11.40;4.50;;;;;;;12.08;69.21;97744.70;226927;1269;22539;-77
2024/03/29 20:36:23;;;;;;;14.30;5.00;;;;;;;12.07;69.59;97744.63;226865;1257;22539;-75
2024/03/29 20:41:25;;;;;;;12.80;4.80;;;;;;;12.05;69.71;97750.48;226896;1273;22534;-77
2024/03/29 20:46:29;;;;;;;14.40;6.40;;;;;;;11.97;70.06;97743.63;226862;1270;22572;-76
2024/03/29 20:51:31;;;;;;;15.50;7.20;;;;;;;11.84;69.75;97741.98;226742;1273;22552;-77
2024/03/29 20:56:33;;;;;;;17.90;7.80;;;;;;;11.70;70.14;97741.50;226919;1272;22538;-77
2024/03/29 21:06:56;;;;;;;16.30;8.10;;;;;;;11.47;70.86;97749.42;226946;1270;23343;-77
2024/03/29 21:11:57;;;;;;;18.80;8.40;;;;;;;11.39;70.91;97750.95;226767;1273;22708;-78
2024/03/29 21:16:59;;;;;;;19.20;10.20;;;;;;;11.32;71.45;97752.46;226954;1273;22561;-77
2024/03/29 21:22:02;;;;;;;21.60;10.40;;;;;;;11.26;71.66;97762.16;226978;1272;22571;-77
2024/03/29 21:27:04;;;;;;;20.60;9.80;;;;;;;11.18;71.65;97762.35;226837;1267;24280;-77
2024/03/29 21:32:06;;;;;;;19.40;10.00;;;;;;;11.10;71.76;97766.95;226916;1269;22543;-77
2024/03/29 21:37:10;;;;;;;17.40;10.10;;;;;;;11.00;72.04;97765.10;226899;1270;22563;-77
2024/03/29 21:42:12;;;;;;;16.50;8.10;;;;;;;10.92;72.15;97769.44;226918;1270;22546;-77
2024/03/29 21:47:15;;;;;;;12.60;6.70;;;;;;;10.85;72.66;97770.25;226902;1270;22573;-77
2024/03/29 21:52:17;;;;;;;14.30;7.00;;;;;;;10.78;72.84;97770.84;226960;1270;22557;-78
2024/03/29 21:57:18;;;;;;;16.60;7.80;;;;;;;10.73;73.23;97775.75;226947;1270;22658;-77
2024/03/29 22:02:20;;;;;;;12.80;7.00;;;;;;;10.70;73.31;97776.77;226954;1272;22547;-77
2024/03/29 22:07:26;;;;;;;13.60;6.40;;;;;;;10.68;73.46;97777.10;226880;1273;22569;-77
2024/03/29 22:12:28;;;;;;;14.30;7.20;;;;;;;10.68;73.62;97777.10;226905;1269;22580;-77
2024/03/29 22:17:30;;;;;;;14.90;6.90;;;;;;;10.71;74.07;97781.16;226733;1273;22534;-77
2024/03/29 22:22:32;;;;;;;16.50;7.30;;;;;;;10.74;74.12;97782.85;226828;1267;25932;-77
2024/03/29 22:27:34;;;;;;;16.90;6.90;;;;;;;10.74;74.01;97783.74;226875;1270;22544;-77
2024/03/29 22:32:36;;;;;;;17.10;6.70;;;;;;;10.75;74.35;97771.19;226957;1272;22538;-77
2024/03/29 22:37:37;;;;;;;14.20;6.50;;;;;;;10.76;74.41;97766.79;226892;1270;25180;-76
2024/03/29 22:42:39;;;;;;;14.10;5.50;;;;;;;10.78;74.47;97762.42;226813;1272;22531;-76
2024/03/29 22:47:41;;;;;;;14.10;5.50;;;;;;;10.80;74.78;97750.52;226864;1267;22523;-76
2024/03/29 22:52:47;;;;;;;12.00;4.50;;;;;;;10.84;75.02;97744.70;226823;1270;22573;-76
2024/03/29 22:57:48;;;;;;;10.60;4.20;;;;;;;10.85;74.88;97749.80;226853;1266;22558;-77
2024/03/29 23:02:50;;;;;;;11.50;4.60;;;;;;;10.84;75.00;97759.92;226885;1266;22577;-77
2024/03/29 23:07:53;;;;;;;11.60;4.50;;;;;;;10.83;75.05;97767.40;226882;1270;22544;-77
2024/03/29 23:12:55;;;;;;;13.30;5.00;;;;;;;10.79;75.00;97770.80;226852;1270;24326;-77
2024/03/29 23:17:57;;;;;;;11.60;5.60;;;;;;;10.74;74.98;97769.11;226851;1270;22538;-76
2024/03/29 23:23:01;;;;;;;13.30;5.50;;;;;;;10.73;75.09;97770.75;226819;1269;25285;-77
2024/03/29 23:28:03;;;;;;;14.60;6.00;;;;;;;10.69;75.23;97772.58;226918;1272;22539;-77
2024/03/29 23:33:05;;;;;;;12.60;6.50;;;;;;;10.63;75.48;97766.56;226896;1266;22548;-77
2024/03/29 23:38:09;;;;;;;18.40;7.70;;;;;;;10.53;75.20;97757.06;226831;1270;22582;-78
2024/03/29 23:43:11;;;;;;;15.00;6.90;;;;;;;10.44;75.64;97756.27;226904;1269;22551;-77
2024/03/29 23:48:13;;;;;;;19.00;7.40;;;;;;;10.36;75.52;97763.06;226932;1267;22535;-77
2024/03/29 23:53:15;;;;;;;15.20;6.80;;;;;;;10.29;75.62;97755.00;226834;1270;22554;-77